createdAt,value
2023-03-21T00:00:46.200Z,10.32
2023-03-21T00:06:17.926Z,10.36
2023-03-21T00:11:50.172Z,10.37
2023-03-21T00:17:21.598Z,10.44
2023-03-21T00:22:53.669Z,10.46
2023-03-21T00:28:25.130Z,10.53
2023-03-21T00:33:57.741Z,10.56
2023-03-21T00:39:29.476Z,10.65
2023-03-21T00:45:01.535Z,10.65
2023-03-21T00:50:35.982Z,10.71
2023-03-21T00:56:07.631Z,10.75
2023-03-21T01:01:39.396Z,10.80
2023-03-21T01:07:11.055Z,10.84
2023-03-21T01:12:43.170Z,10.88
2023-03-21T01:18:15.317Z,10.91
2023-03-21T01:23:47.518Z,10.94
2023-03-21T01:29:18.934Z,10.99
2023-03-21T01:34:51.700Z,11.03
2023-03-21T01:42:45.969Z,11.08
2023-03-21T01:48:17.689Z,11.10
2023-03-21T01:53:49.312Z,11.13
2023-03-21T01:59:20.857Z,11.15
2023-03-21T02:04:52.636Z,11.13
2023-03-21T02:10:25.071Z,11.13
2023-03-21T02:15:57.139Z,11.16
2023-03-21T02:21:29.015Z,11.10
2023-03-21T02:27:04.235Z,11.09
2023-03-21T02:32:37.767Z,11.01
2023-03-21T02:38:04.397Z,10.95
2023-03-21T02:43:36.040Z,10.92
2023-03-21T02:49:08.025Z,10.88
2023-03-21T02:54:48.110Z,10.88
2023-03-21T03:00:16.693Z,10.88
2023-03-21T03:05:43.451Z,10.90
2023-03-21T03:11:15.738Z,10.88
2023-03-21T03:16:47.912Z,10.87
2023-03-21T03:22:19.891Z,10.88
2023-03-21T03:27:52.213Z,10.85
2023-03-21T03:33:24.444Z,10.87
2023-03-21T03:38:56.017Z,10.84
2023-03-21T03:44:28.246Z,10.84
2023-03-21T03:50:00.218Z,10.84
2023-03-21T03:55:32.401Z,10.82
2023-03-21T04:01:04.317Z,10.81
2023-03-21T04:06:36.364Z,10.80
2023-03-21T04:12:08.190Z,10.81
2023-03-21T04:17:40.142Z,10.81
2023-03-21T04:23:12.078Z,10.81
2023-03-21T04:28:43.803Z,10.81
2023-03-21T04:34:15.787Z,10.81
2023-03-21T04:39:47.826Z,10.82
2023-03-21T04:45:20.406Z,10.81
2023-03-21T04:50:52.289Z,10.81
2023-03-21T04:56:24.774Z,10.78
2023-03-21T05:01:57.253Z,10.84
2023-03-21T05:07:29.362Z,10.84
2023-03-21T05:13:01.095Z,10.85
2023-03-21T05:18:33.066Z,10.88
2023-03-21T05:24:05.202Z,10.90
2023-03-21T05:29:36.525Z,10.87
2023-03-21T05:35:08.118Z,10.88
2023-03-21T05:40:40.326Z,10.90
2023-03-21T05:46:12.216Z,10.91
2023-03-21T05:51:44.382Z,10.95
2023-03-21T05:57:17.299Z,11.05
2023-03-21T06:02:48.962Z,11.09
2023-03-21T06:08:20.589Z,11.22
2023-03-21T06:13:52.236Z,11.30
2023-03-21T06:19:24.268Z,11.49
2023-03-21T06:24:55.826Z,11.58
2023-03-21T06:30:27.935Z,11.82
2023-03-21T06:36:00.581Z,11.96
2023-03-21T06:41:32.558Z,12.22
2023-03-21T06:47:04.831Z,12.37
2023-03-21T06:52:37.569Z,12.58
2023-03-21T06:58:09.881Z,12.70
2023-03-21T07:03:41.874Z,12.96
2023-03-21T07:09:13.803Z,13.08
2023-03-21T07:14:45.953Z,13.37
2023-03-21T07:20:18.111Z,13.48
2023-03-21T07:25:49.855Z,13.80
2023-03-21T07:31:21.982Z,13.91
2023-03-21T07:36:53.960Z,14.23
2023-03-21T07:42:26.055Z,14.34
2023-03-21T07:47:58.311Z,14.61
2023-03-21T07:53:30.494Z,14.75
2023-03-21T07:59:02.746Z,15.00
2023-03-21T08:04:35.108Z,15.12
2023-03-21T08:10:07.528Z,15.40
2023-03-21T08:15:39.813Z,15.54
2023-03-21T08:21:11.746Z,15.86
2023-03-21T08:26:43.847Z,16.00
2023-03-21T08:32:15.875Z,16.13
2023-03-21T08:37:47.922Z,16.44
2023-03-21T08:43:20.323Z,16.59
2023-03-21T08:48:52.336Z,16.91
2023-03-21T08:54:24.134Z,17.05
2023-03-21T08:59:56.063Z,17.41
2023-03-21T09:05:33.982Z,17.60
2023-03-21T09:11:06.706Z,17.93
2023-03-21T09:16:38.915Z,18.10
2023-03-21T09:22:11.100Z,18.54
2023-03-21T09:27:45.850Z,18.71
2023-03-21T09:38:48.622Z,19.19
2023-03-21T09:44:21.324Z,19.47
2023-03-21T09:49:56.499Z,19.62
2023-03-21T09:55:24.720Z,19.92
2023-03-21T10:00:56.909Z,20.07
2023-03-21T10:06:28.697Z,20.23
2023-03-21T10:12:00.900Z,20.34
2023-03-21T10:17:33.301Z,20.61
2023-03-21T10:23:05.353Z,20.76
2023-03-21T10:34:07.031Z,21.07
2023-03-21T10:45:08.348Z,21.31
2023-03-21T10:50:40.752Z,21.40
2023-03-21T11:04:03.298Z,21.37
2023-03-21T11:09:35.113Z,21.29
2023-03-21T11:15:07.174Z,21.20
2023-03-21T11:20:38.812Z,21.17
2023-03-21T11:26:10.550Z,21.18
2023-03-21T11:42:42.246Z,21.03
2023-03-21T11:48:14.510Z,20.85
2023-03-21T11:53:45.905Z,20.75
2023-03-21T11:59:17.699Z,20.76
2023-03-21T12:04:49.711Z,20.83
2023-03-21T12:10:21.486Z,20.86
2023-03-21T12:15:55.440Z,20.90
2023-03-21T12:21:24.820Z,20.89
2023-03-21T12:26:58.169Z,20.76
2023-03-21T12:32:29.095Z,20.71
2023-03-21T12:38:01.030Z,20.58
2023-03-21T12:43:32.657Z,20.48
2023-03-21T12:49:04.641Z,20.44
2023-03-21T12:54:36.417Z,20.33
2023-03-21T13:00:08.233Z,20.44
2023-03-21T13:05:39.993Z,20.54
2023-03-21T13:11:11.496Z,20.67
2023-03-21T13:16:43.507Z,20.74
2023-03-21T13:22:15.598Z,20.92
2023-03-21T13:27:47.431Z,20.92
2023-03-21T13:33:19.289Z,20.89
2023-03-21T13:38:51.036Z,20.88
2023-03-21T13:44:23.026Z,20.80
2023-03-21T13:49:54.731Z,20.80
2023-03-21T13:55:26.550Z,20.67
2023-03-21T14:06:28.286Z,20.48
2023-03-21T14:12:07.084Z,20.40
2023-03-21T14:17:34.076Z,20.24
2023-03-21T14:23:06.385Z,20.12
2023-03-21T14:28:38.031Z,19.92
2023-03-21T14:34:09.887Z,19.83
2023-03-21T14:39:41.796Z,19.68
2023-03-21T14:45:14.094Z,19.62
2023-03-21T14:50:46.221Z,19.57
2023-03-21T14:56:18.049Z,19.55
2023-03-21T15:01:50.190Z,19.50
2023-03-21T15:07:22.364Z,19.51
2023-03-21T15:12:54.269Z,19.50
2023-03-21T15:18:26.714Z,19.51
2023-03-21T15:23:59.024Z,19.55
2023-03-21T15:29:31.456Z,19.55
2023-03-21T15:35:03.284Z,19.48
2023-03-21T15:40:35.083Z,19.42
2023-03-21T15:46:06.776Z,19.34
2023-03-21T15:51:38.601Z,19.31
2023-03-21T15:57:10.547Z,19.24
2023-03-21T16:02:42.808Z,19.23
2023-03-21T16:08:14.102Z,19.20
2023-03-21T16:13:46.157Z,19.17
2023-03-21T16:19:18.083Z,19.14
2023-03-21T16:24:49.753Z,19.03
2023-03-21T16:30:21.266Z,18.96
2023-03-21T16:35:52.991Z,18.72
2023-03-21T16:41:24.379Z,18.65
2023-03-21T16:46:57.000Z,18.48
2023-03-21T16:52:28.990Z,18.35
2023-03-21T16:58:01.054Z,18.19
2023-03-21T17:03:32.738Z,18.12
2023-03-21T17:09:04.260Z,17.97
2023-03-21T17:14:35.586Z,17.89
2023-03-21T17:20:07.234Z,17.74
2023-03-21T17:25:39.069Z,17.65
2023-03-21T17:31:10.988Z,17.45
2023-03-21T17:36:42.720Z,17.37
2023-03-21T17:42:14.496Z,17.17
2023-03-21T17:47:46.455Z,17.09
2023-03-21T17:53:18.766Z,16.86
2023-03-21T18:04:20.342Z,16.62
2023-03-21T18:09:52.424Z,16.52
2023-03-21T18:15:24.206Z,16.40
2023-03-21T18:20:57.943Z,16.33
2023-03-21T18:26:27.492Z,16.21
2023-03-21T18:32:06.274Z,16.19
2023-03-21T18:37:31.020Z,16.10
2023-03-21T18:43:56.100Z,16.06
2023-03-21T18:48:35.722Z,16.02
2023-03-21T18:54:07.166Z,15.99
2023-03-21T18:59:38.731Z,15.97
2023-03-21T19:05:10.503Z,15.96
2023-03-21T19:10:42.465Z,15.95
2023-03-21T19:16:14.350Z,15.93
2023-03-21T19:21:46.388Z,15.90
2023-03-21T19:27:18.657Z,15.90
2023-03-21T19:32:50.309Z,15.86
2023-03-21T19:38:22.162Z,15.84
2023-03-21T19:43:56.393Z,15.75
2023-03-21T19:49:37.033Z,15.74
2023-03-21T19:54:57.226Z,15.64
2023-03-21T19:57:21.541Z,0.00
2023-03-21T20:02:53.354Z,15.54
2023-03-21T20:08:25.157Z,15.47
2023-03-21T20:13:57.326Z,15.31
2023-03-21T20:19:29.958Z,15.24
2023-03-21T20:25:02.395Z,15.09
2023-03-21T20:30:34.520Z,15.03
2023-03-21T20:41:38.217Z,14.78
2023-03-21T20:47:09.895Z,14.58
2023-03-21T20:53:09.814Z,14.47
2023-03-21T20:58:36.724Z,14.30
2023-03-21T21:03:45.734Z,14.23
2023-03-21T21:09:17.435Z,14.09
2023-03-21T21:14:49.273Z,14.03
2023-03-21T21:20:21.110Z,13.92
2023-03-21T21:25:52.663Z,13.85
2023-03-21T21:31:24.566Z,13.77
2023-03-21T21:36:56.250Z,13.73
2023-03-21T21:42:27.822Z,13.70
2023-03-21T21:47:59.844Z,13.64
2023-03-21T21:53:31.465Z,13.57
2023-03-21T21:59:03.691Z,13.53
2023-03-21T22:04:35.614Z,13.53
2023-03-21T22:10:07.603Z,13.43
2023-03-21T22:15:39.967Z,13.41
2023-03-21T22:21:11.926Z,13.33
2023-03-21T22:26:43.598Z,13.29
2023-03-21T22:32:15.351Z,13.19
2023-03-21T22:37:47.198Z,13.12
2023-03-21T22:43:20.021Z,12.98
2023-03-21T22:48:52.267Z,12.94
2023-03-21T22:54:24.336Z,12.82
2023-03-21T22:59:56.245Z,12.78
2023-03-21T23:05:28.474Z,12.65
2023-03-21T23:11:00.241Z,12.57
2023-03-21T23:16:32.183Z,12.44
2023-03-21T23:22:03.899Z,12.40
2023-03-21T23:27:35.898Z,12.30
2023-03-21T23:33:07.618Z,12.26
2023-03-21T23:38:39.626Z,12.23
2023-03-21T23:44:11.515Z,12.22
2023-03-21T23:49:44.034Z,12.16
2023-03-21T23:55:16.067Z,12.15
